Terminal Aerodrome Forecast
Issued by NWS Bismarck, ND

Home | Current Version | Previous Version | Graphics & Text | Print | Product List | Glossary On
Versions: 1 2 3 4 5 6 7 8 9 10 11 12 13 14 15 16 17 18
675
FTUS43 KBIS 130525
TAFISN
TAF
KISN 130525Z 1306/1406 12011KT 2SM -SN OVC015
      TEMPO 1306/1310 6SM -SN OVC035
     FM131000 13012KT P6SM VCSH OVC025
     FM131500 15012KT P6SM OVC035
     FM132000 17009KT P6SM OVC010
     FM132100 17008KT 6SM -RASN OVC008
     FM140100 22006KT P6SM -SN OVC015
     FM140500 29012KT P6SM VCSH BKN015=

USA.gov is the U.S. government's official web portal to all federal, state and local government web resources and services.